createdAt,value
2023-02-26T00:00:36.823Z,97917.94
2023-02-26T00:03:04.334Z,97905.78
2023-02-26T00:05:31.500Z,97912.19
2023-02-26T00:07:58.685Z,97912.81
2023-02-26T00:10:26.151Z,97901.88
2023-02-26T00:12:53.594Z,97909.34
2023-02-26T00:15:21.034Z,97885.03
2023-02-26T00:18:02.257Z,97900.06
2023-02-26T00:20:29.609Z,97924.78
2023-02-26T00:22:57.223Z,97915.91
2023-02-26T00:25:24.358Z,97908.47
2023-02-26T00:27:51.726Z,97889.25
2023-02-26T00:30:19.383Z,97876.28
2023-02-26T00:32:46.796Z,97864.91
2023-02-26T00:35:16.494Z,97877.69
2023-02-26T00:37:44.660Z,97881.69
2023-02-26T00:40:16.809Z,97877.75
2023-02-26T00:42:45.216Z,97887.38
2023-02-26T00:45:12.758Z,97892.53
2023-02-26T00:47:43.522Z,97895.84
2023-02-26T00:50:10.939Z,97870.09
2023-02-26T00:52:39.837Z,97875.28
2023-02-26T00:55:07.091Z,97895.97
2023-02-26T00:57:34.564Z,97891.66
2023-02-26T01:00:02.748Z,97893.28
2023-02-26T01:02:30.066Z,97892.16
2023-02-26T01:04:57.635Z,97892.53
2023-02-26T01:07:24.813Z,97889.13
2023-02-26T01:09:53.132Z,97889.53
2023-02-26T01:12:22.221Z,97892.38
2023-02-26T01:14:50.551Z,97907.13
2023-02-26T01:17:25.887Z,97916.66
2023-02-26T01:19:57.332Z,97919.25
2023-02-26T01:22:36.230Z,97927.84
2023-02-26T01:25:05.592Z,97912.28
2023-02-26T01:27:32.934Z,97908.94
2023-02-26T01:30:00.191Z,97897.72
2023-02-26T01:32:36.419Z,97899.34
2023-02-26T01:35:31.502Z,97891.66
2023-02-26T01:38:04.055Z,97892.41
2023-02-26T01:40:50.100Z,97870.97
2023-02-26T01:43:20.261Z,97875.31
2023-02-26T01:45:55.824Z,97877.72
2023-02-26T01:48:29.817Z,97869.22
2023-02-26T01:50:58.335Z,97877.91
2023-02-26T01:53:26.710Z,97886.25
2023-02-26T01:55:58.042Z,97890.81
2023-02-26T01:58:26.394Z,97915.72
2023-02-26T02:00:53.577Z,97925.19
2023-02-26T02:03:21.092Z,97926.78
2023-02-26T02:05:51.058Z,97934.69
2023-02-26T02:08:19.174Z,97940.78
2023-02-26T02:10:47.089Z,97911.97
2023-02-26T02:13:14.307Z,97909.50
2023-02-26T02:16:03.781Z,97904.41
2023-02-26T02:18:39.348Z,97903.50
2023-02-26T02:21:06.789Z,97898.16
2023-02-26T02:23:37.153Z,97897.25
2023-02-26T02:26:04.284Z,97921.81
2023-02-26T02:28:55.057Z,97911.88
2023-02-26T02:31:22.949Z,97908.03
2023-02-26T02:33:52.506Z,97917.09
2023-02-26T02:36:26.624Z,97928.13
2023-02-26T02:38:55.811Z,97942.75
2023-02-26T02:41:25.482Z,97943.97
2023-02-26T02:43:53.874Z,97931.44
2023-02-26T02:46:30.940Z,97942.09
2023-02-26T02:49:02.077Z,97937.91
2023-02-26T02:51:33.922Z,97940.25
2023-02-26T02:54:01.103Z,97960.19
2023-02-26T02:56:36.995Z,97956.94
2023-02-26T02:59:19.419Z,97959.34
2023-02-26T03:01:47.301Z,97948.91
2023-02-26T03:04:15.320Z,97958.53
2023-02-26T03:06:42.576Z,97983.78
2023-02-26T03:09:11.155Z,97975.94
2023-02-26T03:11:41.468Z,97975.19
2023-02-26T03:14:10.284Z,97965.59
2023-02-26T03:16:41.040Z,97957.09
2023-02-26T03:19:28.439Z,97948.38
2023-02-26T03:22:07.319Z,97961.31
2023-02-26T03:24:37.936Z,97966.28
2023-02-26T03:27:18.932Z,97972.44
2023-02-26T03:29:54.518Z,97982.97
2023-02-26T03:32:25.133Z,97983.69
2023-02-26T03:35:06.366Z,97983.88
2023-02-26T03:37:37.444Z,97990.75
2023-02-26T03:40:09.755Z,97976.97
2023-02-26T03:42:37.631Z,97983.00
2023-02-26T03:45:13.883Z,98002.63
2023-02-26T03:47:42.139Z,98010.28
2023-02-26T03:50:11.705Z,98008.69
2023-02-26T03:52:40.514Z,98013.97
2023-02-26T03:55:13.488Z,98028.28
2023-02-26T03:57:44.272Z,98023.12
2023-02-26T04:00:13.430Z,98007.75
2023-02-26T04:02:43.467Z,97987.13
2023-02-26T04:05:19.055Z,97978.66
2023-02-26T04:07:47.140Z,97973.09
2023-02-26T04:10:15.593Z,97988.81
2023-02-26T04:12:42.762Z,97992.25
2023-02-26T04:15:10.235Z,97993.19
2023-02-26T04:17:37.766Z,97986.41
2023-02-26T04:20:08.562Z,98011.34
2023-02-26T04:22:35.717Z,98007.13
2023-02-26T04:25:03.227Z,98023.22
2023-02-26T04:27:30.979Z,98050.69
2023-02-26T04:29:58.207Z,98072.47
2023-02-26T04:32:25.829Z,98062.84
2023-02-26T04:34:53.300Z,98053.44
2023-02-26T04:37:20.707Z,98049.97
2023-02-26T04:39:48.451Z,98067.22
2023-02-26T04:42:15.637Z,98070.75
2023-02-26T04:44:42.829Z,98074.03
2023-02-26T04:47:12.955Z,98082.94
2023-02-26T04:49:40.181Z,98075.16
2023-02-26T04:52:07.513Z,98072.00
2023-02-26T04:54:35.329Z,98064.94
2023-02-26T04:57:02.527Z,98053.28
2023-02-26T04:59:30.035Z,98069.12
2023-02-26T05:01:57.733Z,98072.78
2023-02-26T05:04:25.722Z,98072.41
2023-02-26T05:06:53.964Z,98056.22
2023-02-26T05:09:21.904Z,98053.16
2023-02-26T05:11:49.740Z,98055.19
2023-02-26T05:14:17.274Z,98055.16
2023-02-26T05:16:44.770Z,98053.75
2023-02-26T05:19:11.942Z,98053.62
2023-02-26T05:21:39.238Z,98054.78
2023-02-26T05:24:06.909Z,98059.84
2023-02-26T05:26:34.096Z,98068.16
2023-02-26T05:29:01.262Z,98082.75
2023-02-26T05:31:29.958Z,98091.31
2023-02-26T05:33:57.166Z,98100.59
2023-02-26T05:36:24.622Z,98092.47
2023-02-26T05:38:53.144Z,98093.75
2023-02-26T05:41:20.304Z,98086.00
2023-02-26T05:43:47.539Z,98099.94
2023-02-26T05:46:15.066Z,98109.56
2023-02-26T05:48:44.654Z,98121.38
2023-02-26T05:51:12.807Z,98129.53
2023-02-26T05:53:40.271Z,98130.75
2023-02-26T05:56:07.705Z,98131.66
2023-02-26T05:58:35.007Z,98127.25
2023-02-26T06:01:02.444Z,98122.66
2023-02-26T06:03:29.934Z,98123.88
2023-02-26T06:05:57.104Z,98141.78
2023-02-26T06:08:24.275Z,98135.53
2023-02-26T06:10:52.319Z,98137.22
2023-02-26T06:13:19.555Z,98141.91
2023-02-26T06:15:47.531Z,98147.81
2023-02-26T06:18:15.008Z,98145.00
2023-02-26T06:20:43.399Z,98144.38
2023-02-26T06:23:10.600Z,98159.09
2023-02-26T06:25:38.053Z,98167.25
2023-02-26T06:28:05.280Z,98168.69
2023-02-26T06:30:32.482Z,98162.53
2023-02-26T06:33:00.021Z,98174.63
2023-02-26T06:35:29.964Z,98161.25
2023-02-26T06:37:57.342Z,98168.94
2023-02-26T06:40:24.873Z,98169.13
2023-02-26T06:42:52.038Z,98189.88
2023-02-26T06:45:19.324Z,98202.16
2023-02-26T06:47:47.038Z,98200.94
2023-02-26T06:50:14.240Z,98204.81
2023-02-26T06:52:41.398Z,98203.53
2023-02-26T06:55:09.126Z,98201.31
2023-02-26T06:57:36.310Z,98204.03
2023-02-26T07:00:04.849Z,98205.56
2023-02-26T07:02:32.412Z,98195.06
2023-02-26T07:04:59.588Z,98200.59
2023-02-26T07:07:26.792Z,98192.56
2023-02-26T07:09:54.225Z,98193.38
2023-02-26T07:12:21.464Z,98205.03
2023-02-26T07:14:48.839Z,98197.31
2023-02-26T07:17:20.818Z,98189.03
2023-02-26T07:19:48.866Z,98180.37
2023-02-26T07:22:16.577Z,98186.09
2023-02-26T07:24:43.802Z,98194.16
2023-02-26T07:27:11.348Z,98194.53
2023-02-26T07:29:38.912Z,98193.69
2023-02-26T07:32:06.134Z,98186.97
2023-02-26T07:34:33.751Z,98165.16
2023-02-26T07:37:01.191Z,98182.09
2023-02-26T07:39:28.505Z,98221.84
2023-02-26T07:41:55.672Z,98218.28
2023-02-26T07:44:23.305Z,98198.81
2023-02-26T07:46:50.663Z,98205.19
2023-02-26T07:49:17.894Z,98205.03
2023-02-26T07:51:46.049Z,98213.66
2023-02-26T07:54:13.415Z,98196.78
2023-02-26T07:56:41.315Z,98203.25
2023-02-26T07:59:09.661Z,98203.50
2023-02-26T08:01:38.032Z,98211.25
2023-02-26T08:04:05.534Z,98203.47
2023-02-26T08:06:32.701Z,98199.12
2023-02-26T08:08:59.848Z,98199.31
2023-02-26T08:11:27.543Z,98198.19
2023-02-26T08:13:54.756Z,98197.97
2023-02-26T08:16:21.917Z,98197.31
2023-02-26T08:18:49.348Z,98204.22
2023-02-26T08:21:16.676Z,98215.56
2023-02-26T08:23:43.868Z,98213.91
2023-02-26T08:26:12.427Z,98212.38
2023-02-26T08:28:39.585Z,98220.53
2023-02-26T08:31:06.933Z,98205.97
2023-02-26T08:33:34.541Z,98198.19
2023-02-26T08:36:01.785Z,98197.28
2023-02-26T08:38:29.344Z,98202.56
2023-02-26T08:40:57.290Z,98219.13
2023-02-26T08:43:24.596Z,98219.44
2023-02-26T08:45:52.684Z,98213.28
2023-02-26T08:48:21.512Z,98227.38
2023-02-26T08:50:48.785Z,98235.81
2023-02-26T08:53:16.044Z,98243.62
2023-02-26T08:55:44.941Z,98243.56
2023-02-26T08:58:12.071Z,98244.72
2023-02-26T09:00:39.228Z,98245.53
2023-02-26T09:03:06.691Z,98252.06
2023-02-26T09:05:33.964Z,98240.06
2023-02-26T09:08:01.139Z,98244.56
2023-02-26T09:10:28.614Z,98252.78
2023-02-26T09:12:55.969Z,98245.19
2023-02-26T09:15:23.136Z,98259.53
2023-02-26T09:17:51.782Z,98253.19
2023-02-26T09:20:19.048Z,98259.69
2023-02-26T09:22:46.214Z,98255.78
2023-02-26T09:25:13.667Z,98259.53
2023-02-26T09:27:40.827Z,98257.09
2023-02-26T09:30:08.348Z,98271.34
2023-02-26T09:32:35.909Z,98266.72
2023-02-26T09:35:03.778Z,98276.44
2023-02-26T09:37:31.003Z,98276.22
2023-02-26T09:39:58.472Z,98274.69
2023-02-26T09:42:25.595Z,98281.19
2023-02-26T09:44:54.159Z,98281.28
2023-02-26T09:47:23.773Z,98285.44
2023-02-26T09:49:50.910Z,98282.44
2023-02-26T09:52:36.930Z,98274.91
2023-02-26T09:55:12.207Z,98272.53
2023-02-26T09:57:43.939Z,98267.28
2023-02-26T10:00:14.985Z,98270.91
2023-02-26T10:02:45.199Z,98276.13
2023-02-26T10:05:48.577Z,98277.59
2023-02-26T10:08:17.352Z,98278.47
2023-02-26T10:10:51.692Z,98288.78
2023-02-26T10:13:21.899Z,98309.19
2023-02-26T10:15:49.054Z,98315.03
2023-02-26T10:18:21.488Z,98316.63
2023-02-26T10:20:55.869Z,98323.16
2023-02-26T10:23:28.756Z,98331.09
2023-02-26T10:26:04.814Z,98333.75
2023-02-26T10:28:48.772Z,98336.44
2023-02-26T10:31:19.513Z,98339.25
2023-02-26T10:33:51.731Z,98341.84
2023-02-26T10:36:21.357Z,98345.34
2023-02-26T10:38:51.262Z,98343.59
2023-02-26T10:41:20.765Z,98348.78
2023-02-26T10:43:49.450Z,98350.56
2023-02-26T10:46:35.921Z,98352.22
2023-02-26T10:49:21.980Z,98350.28
2023-02-26T10:51:49.730Z,98357.41
2023-02-26T10:54:36.329Z,98353.66
2023-02-26T10:57:04.171Z,98356.47
2023-02-26T10:59:31.907Z,98361.69
2023-02-26T11:01:59.100Z,98367.78
2023-02-26T11:04:27.401Z,98366.81
2023-02-26T11:06:55.194Z,98370.25
2023-02-26T11:09:25.185Z,98368.72
2023-02-26T11:12:06.085Z,98361.78
2023-02-26T11:14:34.041Z,98355.72
2023-02-26T11:17:02.171Z,98367.75
2023-02-26T11:19:39.729Z,98378.22
2023-02-26T11:22:09.892Z,98377.22
2023-02-26T11:24:38.518Z,98376.38
2023-02-26T11:27:08.789Z,98383.28
2023-02-26T11:29:38.552Z,98381.53
2023-02-26T11:32:06.269Z,98383.41
2023-02-26T11:34:34.608Z,98373.00
2023-02-26T11:37:02.102Z,98371.94
2023-02-26T11:39:36.834Z,98379.91
2023-02-26T11:42:04.716Z,98385.97
2023-02-26T11:44:31.933Z,98385.91
2023-02-26T11:46:59.565Z,98385.09
2023-02-26T11:49:27.709Z,98383.38
2023-02-26T11:52:21.371Z,98387.16
2023-02-26T11:54:50.149Z,98375.47
2023-02-26T11:57:19.312Z,98382.97
2023-02-26T11:59:51.029Z,98384.56
2023-02-26T12:02:21.579Z,98377.16
2023-02-26T12:04:52.458Z,98388.50
2023-02-26T12:07:20.352Z,98391.06
2023-02-26T12:09:47.993Z,98392.63
2023-02-26T12:12:15.734Z,98395.81
2023-02-26T12:14:44.093Z,98398.06
2023-02-26T12:17:20.936Z,98404.19
2023-02-26T12:20:00.613Z,98404.62
2023-02-26T12:22:27.998Z,98404.47
2023-02-26T12:24:56.066Z,98407.25
2023-02-26T12:27:42.414Z,98403.00
2023-02-26T12:30:28.685Z,98407.87
2023-02-26T12:32:59.114Z,98409.50
2023-02-26T12:35:27.945Z,98407.97
2023-02-26T12:38:02.242Z,98407.87
2023-02-26T12:40:33.432Z,98411.50
2023-02-26T12:43:14.294Z,98416.66
2023-02-26T12:45:45.343Z,98418.97
2023-02-26T12:48:31.441Z,98427.97
2023-02-26T12:51:04.865Z,98420.00
2023-02-26T12:53:59.290Z,98431.34
2023-02-26T12:56:34.811Z,98436.81
2023-02-26T12:59:02.282Z,98429.22
2023-02-26T13:02:00.552Z,98438.19
2023-02-26T13:04:51.757Z,98433.31
2023-02-26T13:07:42.641Z,98442.97
2023-02-26T13:10:29.382Z,98440.09
2023-02-26T13:13:04.405Z,98446.59
2023-02-26T13:15:37.848Z,98456.09
2023-02-26T13:18:13.898Z,98460.78
2023-02-26T13:20:42.645Z,98462.25
2023-02-26T13:23:12.355Z,98463.22
2023-02-26T13:25:52.057Z,98454.91
2023-02-26T13:28:30.767Z,98460.06
2023-02-26T13:30:59.068Z,98465.22
2023-02-26T13:33:28.725Z,98461.56
2023-02-26T13:35:56.639Z,98464.06
2023-02-26T13:38:24.102Z,98459.34
2023-02-26T13:41:08.145Z,98467.84
2023-02-26T13:43:42.113Z,98468.53
2023-02-26T13:46:26.040Z,98470.16
2023-02-26T13:49:01.088Z,98466.25
2023-02-26T13:51:31.725Z,98469.34
2023-02-26T13:54:00.902Z,98455.69
2023-02-26T13:56:33.867Z,98470.34
2023-02-26T13:59:25.218Z,98476.63
2023-02-26T14:01:57.277Z,98472.84
2023-02-26T14:04:26.328Z,98483.16
2023-02-26T14:06:57.082Z,98483.75
2023-02-26T14:09:28.347Z,98488.03
2023-02-26T14:11:55.770Z,98492.44
2023-02-26T14:14:23.508Z,98501.28
2023-02-26T14:17:03.889Z,98501.34
2023-02-26T14:19:34.385Z,98508.78
2023-02-26T14:22:03.539Z,98515.56
2023-02-26T14:24:40.626Z,98514.44
2023-02-26T14:27:24.097Z,98505.09
2023-02-26T14:29:58.773Z,98516.31
2023-02-26T14:32:30.081Z,98516.94
2023-02-26T14:35:10.670Z,98517.22
2023-02-26T14:37:41.397Z,98522.47
2023-02-26T14:40:29.037Z,98518.75
2023-02-26T14:42:58.164Z,98523.78
2023-02-26T14:45:35.561Z,98529.00
2023-02-26T14:48:05.668Z,98536.81
2023-02-26T14:50:37.752Z,98536.47
2023-02-26T14:53:30.357Z,98536.88
2023-02-26T14:56:17.218Z,98541.28
2023-02-26T14:58:45.977Z,98541.72
2023-02-26T15:01:25.734Z,98545.03
2023-02-26T15:04:09.883Z,98546.59
2023-02-26T15:06:38.415Z,98550.91
2023-02-26T15:09:14.852Z,98561.41
2023-02-26T15:12:03.417Z,98569.09
2023-02-26T15:14:50.593Z,98575.31
2023-02-26T15:17:37.364Z,98586.56
2023-02-26T15:20:09.721Z,98591.50
2023-02-26T15:22:43.824Z,98593.38
2023-02-26T15:25:20.036Z,98603.84
2023-02-26T15:27:48.667Z,98606.00
2023-02-26T15:30:17.844Z,98602.06
2023-02-26T15:32:46.612Z,98614.25
2023-02-26T15:35:19.360Z,98609.94
2023-02-26T15:37:51.841Z,98621.19
2023-02-26T15:40:19.631Z,98622.03
2023-02-26T15:42:49.744Z,98616.00
2023-02-26T15:45:24.103Z,98623.78
2023-02-26T15:47:54.896Z,98629.84
2023-02-26T15:50:24.916Z,98627.25
2023-02-26T15:52:55.762Z,98626.34
2023-02-26T15:55:24.306Z,98627.94
2023-02-26T15:57:52.524Z,98635.84
2023-02-26T16:00:25.998Z,98633.12
2023-02-26T16:03:00.062Z,98633.84
2023-02-26T16:05:29.333Z,98630.34
2023-02-26T16:07:59.415Z,98648.44
2023-02-26T16:10:36.543Z,98647.50
2023-02-26T16:13:09.214Z,98650.94
2023-02-26T16:15:37.903Z,98657.78
2023-02-26T16:18:12.251Z,98658.87
2023-02-26T16:20:42.924Z,98666.75
2023-02-26T16:23:13.013Z,98667.66
2023-02-26T16:25:44.815Z,98668.59
2023-02-26T16:28:15.051Z,98672.91
2023-02-26T16:30:44.912Z,98676.38
2023-02-26T16:33:14.036Z,98674.63
2023-02-26T16:35:53.246Z,98685.13
2023-02-26T16:38:24.947Z,98688.66
2023-02-26T16:40:59.203Z,98688.47
2023-02-26T16:43:33.945Z,98705.09
2023-02-26T16:46:02.504Z,98707.56
2023-02-26T16:48:40.608Z,98707.53
2023-02-26T16:51:10.955Z,98699.03
2023-02-26T16:53:48.046Z,98709.50
2023-02-26T16:56:18.737Z,98708.62
2023-02-26T16:58:50.562Z,98712.03
2023-02-26T17:01:19.595Z,98705.19
2023-02-26T17:03:49.853Z,98719.87
2023-02-26T17:06:20.192Z,98719.87
2023-02-26T17:08:54.379Z,98726.81
2023-02-26T17:11:25.190Z,98720.78
2023-02-26T17:14:09.514Z,98725.09
2023-02-26T17:16:37.866Z,98729.38
2023-02-26T17:19:06.834Z,98738.06
2023-02-26T17:21:34.910Z,98732.84
2023-02-26T17:24:03.457Z,98741.53
2023-02-26T17:26:32.405Z,98741.56
2023-02-26T17:29:01.133Z,98737.22
2023-02-26T17:31:29.819Z,98745.00
2023-02-26T17:33:59.071Z,98749.34
2023-02-26T17:36:27.195Z,98748.47
2023-02-26T17:38:55.758Z,98742.31
2023-02-26T17:41:25.499Z,98746.69
2023-02-26T17:43:56.785Z,98746.75
2023-02-26T17:46:26.781Z,98743.19
2023-02-26T17:48:55.036Z,98744.09
2023-02-26T17:51:23.105Z,98750.22
2023-02-26T17:53:52.029Z,98750.16
2023-02-26T17:56:26.899Z,98746.56
2023-02-26T17:58:56.369Z,98753.53
2023-02-26T18:01:25.516Z,98745.00
2023-02-26T18:03:57.930Z,98749.31
2023-02-26T18:06:34.340Z,98753.66
2023-02-26T18:09:04.983Z,98752.63
2023-02-26T18:11:34.246Z,98746.53
2023-02-26T18:14:08.512Z,98748.22
2023-02-26T18:16:41.634Z,98752.69
2023-02-26T18:19:12.225Z,98759.63
2023-02-26T18:21:41.434Z,98757.84
2023-02-26T18:24:10.583Z,98754.28
2023-02-26T18:26:38.966Z,98756.88
2023-02-26T18:29:07.569Z,98748.19
2023-02-26T18:31:37.038Z,98752.47
2023-02-26T18:34:05.296Z,98752.44
2023-02-26T18:36:39.875Z,98759.28
2023-02-26T18:39:10.499Z,98755.97
2023-02-26T18:41:38.685Z,98769.81
2023-02-26T18:44:07.276Z,98770.66
2023-02-26T18:46:40.658Z,98769.91
2023-02-26T18:49:16.472Z,98767.16
2023-02-26T18:51:45.575Z,98780.13
2023-02-26T18:54:13.913Z,98774.81
2023-02-26T18:56:42.270Z,98771.38
2023-02-26T18:59:11.934Z,98779.97
2023-02-26T19:01:41.962Z,98776.59
2023-02-26T19:04:12.960Z,98787.13
2023-02-26T19:06:41.886Z,98782.75
2023-02-26T19:09:10.743Z,98783.69
2023-02-26T19:11:42.699Z,98788.87
2023-02-26T19:14:10.635Z,98788.19
2023-02-26T19:16:43.015Z,98778.53
2023-02-26T19:19:15.077Z,98789.72
2023-02-26T19:21:48.023Z,98786.25
2023-02-26T19:24:26.642Z,98795.03
2023-02-26T19:26:56.729Z,98787.13
2023-02-26T19:29:26.552Z,98797.53
2023-02-26T19:31:56.099Z,98799.25
2023-02-26T19:34:27.548Z,98800.12
2023-02-26T19:36:56.361Z,98800.88
2023-02-26T19:39:24.813Z,98806.81
2023-02-26T19:41:57.068Z,98809.78
2023-02-26T19:44:25.209Z,98810.56
2023-02-26T19:46:54.957Z,98821.81
2023-02-26T19:49:23.929Z,98819.16
2023-02-26T19:51:52.869Z,98824.41
2023-02-26T19:54:31.415Z,98823.56
2023-02-26T19:57:02.946Z,98838.28
2023-02-26T19:59:32.388Z,98840.88
2023-02-26T20:02:01.946Z,98837.31
2023-02-26T20:04:31.725Z,98848.72
2023-02-26T20:07:00.261Z,98852.28
2023-02-26T20:09:30.771Z,98852.25
2023-02-26T20:12:00.103Z,98859.31
2023-02-26T20:14:30.820Z,98863.66
2023-02-26T20:17:00.278Z,98864.41
2023-02-26T20:19:29.162Z,98867.94
2023-02-26T20:21:57.046Z,98869.62
2023-02-26T20:24:27.027Z,98873.78
2023-02-26T20:26:55.715Z,98876.88
2023-02-26T20:29:25.286Z,98882.50
2023-02-26T20:31:55.543Z,98882.72
2023-02-26T20:34:24.848Z,98881.03
2023-02-26T20:36:56.289Z,98887.97
2023-02-26T20:39:24.491Z,98889.72
2023-02-26T20:41:55.642Z,98900.97
2023-02-26T20:44:24.126Z,98896.66
2023-02-26T20:46:53.141Z,98898.38
2023-02-26T20:49:22.390Z,98903.59
2023-02-26T20:51:51.293Z,98906.19
2023-02-26T20:54:22.018Z,98911.37
2023-02-26T20:56:51.071Z,98916.59
2023-02-26T20:59:19.848Z,98921.78
2023-02-26T21:01:48.774Z,98915.72
2023-02-26T21:04:17.458Z,98929.59
2023-02-26T21:06:46.108Z,98933.06
2023-02-26T21:09:15.168Z,98929.59
2023-02-26T21:11:44.111Z,98929.59
2023-02-26T21:14:13.931Z,98931.34
2023-02-26T21:16:43.954Z,98937.41
2023-02-26T21:19:13.714Z,98930.47
2023-02-26T21:21:41.793Z,98942.59
2023-02-26T21:24:10.760Z,98943.47
2023-02-26T21:26:38.256Z,98940.87
2023-02-26T21:29:06.649Z,98938.22
2023-02-26T21:31:34.389Z,98934.81
2023-02-26T21:34:17.283Z,98927.88
2023-02-26T21:36:50.125Z,98932.22
2023-02-26T21:39:17.442Z,98934.78
2023-02-26T21:41:45.200Z,98944.31
2023-02-26T21:44:13.977Z,98953.78
2023-02-26T21:46:41.472Z,98958.00
2023-02-26T21:49:09.641Z,98963.28
2023-02-26T21:51:37.826Z,98963.56
2023-02-26T21:54:05.081Z,98970.63
2023-02-26T21:56:32.290Z,98961.00
2023-02-26T21:58:59.953Z,98967.91
2023-02-26T22:01:27.490Z,98956.19
2023-02-26T22:03:55.182Z,98961.84
2023-02-26T22:06:22.359Z,98964.87
2023-02-26T22:08:50.026Z,98960.06
2023-02-26T22:11:17.511Z,98954.56
2023-02-26T22:13:44.703Z,98948.59
2023-02-26T22:16:13.657Z,98959.31
2023-02-26T22:18:41.106Z,98960.75
2023-02-26T22:21:08.430Z,98958.47
2023-02-26T22:23:35.764Z,98966.44
2023-02-26T22:26:03.467Z,98959.94
2023-02-26T22:28:30.613Z,98970.28
2023-02-26T22:30:58.723Z,98967.84
2023-02-26T22:33:26.433Z,98963.19
2023-02-26T22:35:57.237Z,98977.38
2023-02-26T22:38:24.619Z,98975.00
2023-02-26T22:40:52.307Z,98977.97
2023-02-26T22:43:19.499Z,98977.66
2023-02-26T22:45:46.733Z,98973.91
2023-02-26T22:48:14.466Z,98978.94
2023-02-26T22:50:42.128Z,98986.53
2023-02-26T22:53:09.287Z,98992.34
2023-02-26T22:55:36.723Z,98994.06
2023-02-26T22:58:04.747Z,98983.34
2023-02-26T23:00:32.132Z,98990.62
2023-02-26T23:02:59.635Z,98982.28
2023-02-26T23:05:29.360Z,98983.41
2023-02-26T23:07:56.512Z,98990.47
2023-02-26T23:10:23.967Z,98992.78
2023-02-26T23:12:51.150Z,99002.28
2023-02-26T23:15:18.377Z,99005.75
2023-02-26T23:17:45.865Z,99015.28
2023-02-26T23:20:13.896Z,99005.63
2023-02-26T23:22:44.503Z,99013.94
2023-02-26T23:25:12.247Z,99018.84
2023-02-26T23:27:39.723Z,99020.41
2023-02-26T23:30:08.318Z,99016.22
2023-02-26T23:32:37.213Z,99040.31
2023-02-26T23:35:04.771Z,99037.22
2023-02-26T23:37:32.270Z,99036.22
2023-02-26T23:39:59.679Z,99039.31
2023-02-26T23:42:26.829Z,99028.13
2023-02-26T23:44:53.979Z,99031.94
2023-02-26T23:47:21.408Z,99028.47
2023-02-26T23:49:48.576Z,99032.25
2023-02-26T23:52:16.632Z,99030.94
2023-02-26T23:54:44.057Z,99043.94
2023-02-26T23:57:13.770Z,99049.47
2023-02-26T23:59:40.918Z,99051.06
